sensor_id;sensor_type;location;lat;lon;timestamp;P1;durP1;ratioP1;P2;durP2;ratioP2
65825;SDS011;52586;-43.152;172.732;2022-09-13T00:01:46;0.22;;;0.22;;
65825;SDS011;52586;-43.152;172.732;2022-09-13T00:04:17;1.67;;;0.30;;
65825;SDS011;52586;-43.152;172.732;2022-09-13T00:06:48;0.30;;;0.20;;
65825;SDS011;52586;-43.152;172.732;2022-09-13T00:09:18;0.70;;;0.30;;
65825;SDS011;52586;-43.152;172.732;2022-09-13T00:11:49;0.38;;;0.38;;
65825;SDS011;52586;-43.152;172.732;2022-09-13T00:14:20;0.65;;;0.40;;
65825;SDS011;52586;-43.152;172.732;2022-09-13T00:16:53;1.38;;;0.57;;
65825;SDS011;52586;-43.152;172.732;2022-09-13T00:19:24;0.40;;;0.40;;
65825;SDS011;52586;-43.152;172.732;2022-09-13T00:21:55;0.30;;;0.30;;
65825;SDS011;52586;-43.152;172.732;2022-09-13T00:24:25;0.50;;;0.30;;
65825;SDS011;52586;-43.152;172.732;2022-09-13T00:26:56;0.30;;;0.30;;
65825;SDS011;52586;-43.152;172.732;2022-09-13T00:29:27;1.27;;;0.50;;
65825;SDS011;52586;-43.152;172.732;2022-09-13T00:31:59;1.27;;;0.30;;
65825;SDS011;52586;-43.152;172.732;2022-09-13T00:34:30;0.40;;;0.40;;
65825;SDS011;52586;-43.152;172.732;2022-09-13T00:37:01;0.50;;;0.30;;
65825;SDS011;52586;-43.152;172.732;2022-09-13T00:39:32;0.30;;;0.30;;
65825;SDS011;52586;-43.152;172.732;2022-09-13T00:42:02;0.30;;;0.30;;
65825;SDS011;52586;-43.152;172.732;2022-09-13T00:47:45;0.35;;;0.22;;
65825;SDS011;52586;-43.152;172.732;2022-09-13T00:50:22;1.55;;;0.32;;
65825;SDS011;52586;-43.152;172.732;2022-09-13T00:53:03;0.30;;;0.30;;
65825;SDS011;52586;-43.152;172.732;2022-09-13T00:55:38;0.35;;;0.30;;
65825;SDS011;52586;-43.152;172.732;2022-09-13T00:58:13;0.38;;;0.30;;
65825;SDS011;52586;-43.152;172.732;2022-09-13T01:00:46;0.30;;;0.30;;
65825;SDS011;52586;-43.152;172.732;2022-09-13T01:03:20;0.40;;;0.20;;
65825;SDS011;52586;-43.152;172.732;2022-09-13T01:05:53;0.20;;;0.20;;
65825;SDS011;52586;-43.152;172.732;2022-09-13T01:08:25;0.30;;;0.20;;
65825;SDS011;52586;-43.152;172.732;2022-09-13T01:10:57;0.22;;;0.22;;
65825;SDS011;52586;-43.152;172.732;2022-09-13T01:13:31;0.73;;;0.30;;
65825;SDS011;52586;-43.152;172.732;2022-09-13T01:16:03;0.10;;;0.10;;
65825;SDS011;52586;-43.152;172.732;2022-09-13T01:18:35;0.30;;;0.20;;
65825;SDS011;52586;-43.152;172.732;2022-09-13T01:21:20;0.10;;;0.10;;
65825;SDS011;52586;-43.152;172.732;2022-09-13T01:27:40;0.30;;;0.20;;
65825;SDS011;52586;-43.152;172.732;2022-09-13T01:30:30;1.20;;;0.30;;
65825;SDS011;52586;-43.152;172.732;2022-09-13T01:33:24;0.20;;;0.20;;
65825;SDS011;52586;-43.152;172.732;2022-09-13T01:39:04;0.80;;;0.35;;
65825;SDS011;52586;-43.152;172.732;2022-09-13T01:41:43;0.30;;;0.20;;
65825;SDS011;52586;-43.152;172.732;2022-09-13T01:44:28;0.25;;;0.20;;
65825;SDS011;52586;-43.152;172.732;2022-09-13T01:47:13;1.08;;;0.30;;
65825;SDS011;52586;-43.152;172.732;2022-09-13T01:49:56;1.15;;;0.35;;
65825;SDS011;52586;-43.152;172.732;2022-09-13T01:52:37;0.20;;;0.20;;
65825;SDS011;52586;-43.152;172.732;2022-09-13T01:55:19;0.63;;;0.28;;
65825;SDS011;52586;-43.152;172.732;2022-09-13T01:57:58;0.40;;;0.20;;
65825;SDS011;52586;-43.152;172.732;2022-09-13T02:00:38;0.20;;;0.20;;
65825;SDS011;52586;-43.152;172.732;2022-09-13T02:03:15;0.20;;;0.20;;
65825;SDS011;52586;-43.152;172.732;2022-09-13T02:05:50;0.57;;;0.17;;
65825;SDS011;52586;-43.152;172.732;2022-09-13T02:08:23;0.50;;;0.30;;
65825;SDS011;52586;-43.152;172.732;2022-09-13T02:11:04;0.22;;;0.17;;
65825;SDS011;52586;-43.152;172.732;2022-09-13T02:13:39;1.42;;;0.30;;
65825;SDS011;52586;-43.152;172.732;2022-09-13T02:16:15;0.40;;;0.40;;
65825;SDS011;52586;-43.152;172.732;2022-09-13T02:18:53;0.28;;;0.28;;
65825;SDS011;52586;-43.152;172.732;2022-09-13T02:21:28;0.35;;;0.20;;
65825;SDS011;52586;-43.152;172.732;2022-09-13T02:24:00;0.52;;;0.20;;
65825;SDS011;52586;-43.152;172.732;2022-09-13T02:26:33;0.20;;;0.20;;
65825;SDS011;52586;-43.152;172.732;2022-09-13T02:29:07;0.28;;;0.20;;
65825;SDS011;52586;-43.152;172.732;2022-09-13T02:31:43;0.55;;;0.10;;
65825;SDS011;52586;-43.152;172.732;2022-09-13T02:34:19;0.10;;;0.10;;
65825;SDS011;52586;-43.152;172.732;2022-09-13T02:36:54;1.58;;;0.20;;
65825;SDS011;52586;-43.152;172.732;2022-09-13T02:39:26;0.20;;;0.20;;
65825;SDS011;52586;-43.152;172.732;2022-09-13T02:42:02;0.63;;;0.20;;
65825;SDS011;52586;-43.152;172.732;2022-09-13T02:44:36;0.20;;;0.20;;
65825;SDS011;52586;-43.152;172.732;2022-09-13T02:47:12;0.20;;;0.15;;
65825;SDS011;52586;-43.152;172.732;2022-09-13T02:49:56;0.20;;;0.10;;
65825;SDS011;52586;-43.152;172.732;2022-09-13T02:52:37;1.65;;;0.20;;
65825;SDS011;52586;-43.152;172.732;2022-09-13T02:55:15;0.63;;;0.20;;
65825;SDS011;52586;-43.152;172.732;2022-09-13T02:57:52;0.20;;;0.20;;
65825;SDS011;52586;-43.152;172.732;2022-09-13T03:00:28;0.25;;;0.25;;
65825;SDS011;52586;-43.152;172.732;2022-09-13T03:02:59;0.15;;;0.15;;
65825;SDS011;52586;-43.152;172.732;2022-09-13T03:05:34;0.10;;;0.10;;
65825;SDS011;52586;-43.152;172.732;2022-09-13T03:08:05;2.75;;;0.20;;
65825;SDS011;52586;-43.152;172.732;2022-09-13T03:10:43;0.20;;;0.20;;
65825;SDS011;52586;-43.152;172.732;2022-09-13T03:13:23;1.00;;;0.20;;
65825;SDS011;52586;-43.152;172.732;2022-09-13T03:16:31;0.20;;;0.20;;
65825;SDS011;52586;-43.152;172.732;2022-09-13T03:19:19;0.20;;;0.20;;
65825;SDS011;52586;-43.152;172.732;2022-09-13T03:22:06;0.38;;;0.30;;
65825;SDS011;52586;-43.152;172.732;2022-09-13T03:24:48;0.30;;;0.30;;
65825;SDS011;52586;-43.152;172.732;2022-09-13T03:27:27;0.30;;;0.30;;
65825;SDS011;52586;-43.152;172.732;2022-09-13T03:30:03;0.22;;;0.22;;
65825;SDS011;52586;-43.152;172.732;2022-09-13T03:32:36;0.30;;;0.30;;
65825;SDS011;52586;-43.152;172.732;2022-09-13T03:35:16;0.68;;;0.47;;
65825;SDS011;52586;-43.152;172.732;2022-09-13T03:37:56;0.38;;;0.38;;
65825;SDS011;52586;-43.152;172.732;2022-09-13T03:40:35;0.70;;;0.40;;
65825;SDS011;52586;-43.152;172.732;2022-09-13T03:43:11;0.47;;;0.30;;
65825;SDS011;52586;-43.152;172.732;2022-09-13T03:45:45;1.58;;;0.38;;
65825;SDS011;52586;-43.152;172.732;2022-09-13T03:48:20;0.80;;;0.40;;
65825;SDS011;52586;-43.152;172.732;2022-09-13T03:50:52;0.40;;;0.40;;
65825;SDS011;52586;-43.152;172.732;2022-09-13T03:53:26;0.30;;;0.30;;
65825;SDS011;52586;-43.152;172.732;2022-09-13T03:55:59;0.32;;;0.30;;
65825;SDS011;52586;-43.152;172.732;2022-09-13T03:58:39;0.30;;;0.30;;
65825;SDS011;52586;-43.152;172.732;2022-09-13T04:01:10;0.63;;;0.38;;
65825;SDS011;52586;-43.152;172.732;2022-09-13T04:03:40;0.35;;;0.30;;
65825;SDS011;52586;-43.152;172.732;2022-09-13T04:06:11;0.70;;;0.40;;
65825;SDS011;52586;-43.152;172.732;2022-09-13T04:08:44;1.25;;;0.40;;
65825;SDS011;52586;-43.152;172.732;2022-09-13T04:11:14;0.50;;;0.40;;
65825;SDS011;52586;-43.152;172.732;2022-09-13T04:13:46;0.50;;;0.30;;
65825;SDS011;52586;-43.152;172.732;2022-09-13T04:16:17;0.50;;;0.43;;
65825;SDS011;52586;-43.152;172.732;2022-09-13T04:18:48;0.55;;;0.40;;
65825;SDS011;52586;-43.152;172.732;2022-09-13T04:21:18;1.60;;;0.63;;
65825;SDS011;52586;-43.152;172.732;2022-09-13T04:23:51;0.50;;;0.40;;
65825;SDS011;52586;-43.152;172.732;2022-09-13T04:26:22;0.52;;;0.50;;
65825;SDS011;52586;-43.152;172.732;2022-09-13T04:28:52;0.43;;;0.40;;
65825;SDS011;52586;-43.152;172.732;2022-09-13T04:31:23;0.40;;;0.40;;
65825;SDS011;52586;-43.152;172.732;2022-09-13T04:33:54;0.85;;;0.50;;
65825;SDS011;52586;-43.152;172.732;2022-09-13T04:36:25;0.60;;;0.50;;
65825;SDS011;52586;-43.152;172.732;2022-09-13T04:38:59;1.33;;;0.45;;
65825;SDS011;52586;-43.152;172.732;2022-09-13T04:41:29;0.82;;;0.40;;
65825;SDS011;52586;-43.152;172.732;2022-09-13T04:44:00;0.55;;;0.45;;
65825;SDS011;52586;-43.152;172.732;2022-09-13T04:46:31;0.73;;;0.57;;
65825;SDS011;52586;-43.152;172.732;2022-09-13T04:49:02;0.40;;;0.40;;
65825;SDS011;52586;-43.152;172.732;2022-09-13T04:51:33;0.43;;;0.43;;
65825;SDS011;52586;-43.152;172.732;2022-09-13T04:54:05;0.70;;;0.60;;
65825;SDS011;52586;-43.152;172.732;2022-09-13T04:56:37;0.75;;;0.50;;
65825;SDS011;52586;-43.152;172.732;2022-09-13T04:59:09;1.00;;;0.47;;
65825;SDS011;52586;-43.152;172.732;2022-09-13T05:01:40;0.55;;;0.43;;
65825;SDS011;52586;-43.152;172.732;2022-09-13T05:04:10;0.73;;;0.50;;
65825;SDS011;52586;-43.152;172.732;2022-09-13T05:06:41;0.52;;;0.50;;
65825;SDS011;52586;-43.152;172.732;2022-09-13T05:09:15;0.68;;;0.40;;
65825;SDS011;52586;-43.152;172.732;2022-09-13T05:11:46;0.52;;;0.47;;
65825;SDS011;52586;-43.152;172.732;2022-09-13T05:14:16;0.40;;;0.40;;
65825;SDS011;52586;-43.152;172.732;2022-09-13T05:16:47;0.40;;;0.40;;
65825;SDS011;52586;-43.152;172.732;2022-09-13T05:19:18;0.57;;;0.35;;
65825;SDS011;52586;-43.152;172.732;2022-09-13T05:21:49;0.60;;;0.60;;
65825;SDS011;52586;-43.152;172.732;2022-09-13T05:24:21;0.70;;;0.70;;
65825;SDS011;52586;-43.152;172.732;2022-09-13T05:26:52;0.70;;;0.63;;
65825;SDS011;52586;-43.152;172.732;2022-09-13T05:29:22;0.80;;;0.50;;
65825;SDS011;52586;-43.152;172.732;2022-09-13T05:31:53;0.57;;;0.50;;
65825;SDS011;52586;-43.152;172.732;2022-09-13T05:34:24;1.40;;;0.68;;
65825;SDS011;52586;-43.152;172.732;2022-09-13T05:36:54;1.10;;;0.75;;
65825;SDS011;52586;-43.152;172.732;2022-09-13T05:39:27;1.17;;;0.50;;
65825;SDS011;52586;-43.152;172.732;2022-09-13T05:41:58;1.13;;;0.50;;
65825;SDS011;52586;-43.152;172.732;2022-09-13T05:44:28;0.77;;;0.63;;
65825;SDS011;52586;-43.152;172.732;2022-09-13T05:46:59;0.75;;;0.50;;
65825;SDS011;52586;-43.152;172.732;2022-09-13T05:49:30;0.40;;;0.40;;
65825;SDS011;52586;-43.152;172.732;2022-09-13T05:52:01;0.85;;;0.60;;
65825;SDS011;52586;-43.152;172.732;2022-09-13T05:54:34;1.05;;;0.70;;
65825;SDS011;52586;-43.152;172.732;2022-09-13T05:57:04;0.70;;;0.50;;
65825;SDS011;52586;-43.152;172.732;2022-09-13T05:59:35;1.00;;;0.60;;
65825;SDS011;52586;-43.152;172.732;2022-09-13T06:02:08;0.50;;;0.50;;
65825;SDS011;52586;-43.152;172.732;2022-09-13T06:04:39;0.50;;;0.50;;
65825;SDS011;52586;-43.152;172.732;2022-09-13T06:07:11;0.50;;;0.50;;
65825;SDS011;52586;-43.152;172.732;2022-09-13T06:09:44;0.77;;;0.70;;
65825;SDS011;52586;-43.152;172.732;2022-09-13T06:12:14;0.50;;;0.50;;
65825;SDS011;52586;-43.152;172.732;2022-09-13T06:14:45;0.60;;;0.60;;
65825;SDS011;52586;-43.152;172.732;2022-09-13T06:17:16;0.55;;;0.55;;
65825;SDS011;52586;-43.152;172.732;2022-09-13T06:19:46;0.60;;;0.60;;
65825;SDS011;52586;-43.152;172.732;2022-09-13T06:22:17;0.70;;;0.65;;
65825;SDS011;52586;-43.152;172.732;2022-09-13T06:24:49;0.65;;;0.60;;
65825;SDS011;52586;-43.152;172.732;2022-09-13T06:27:20;0.60;;;0.60;;
65825;SDS011;52586;-43.152;172.732;2022-09-13T06:29:51;0.68;;;0.68;;
65825;SDS011;52586;-43.152;172.732;2022-09-13T06:32:22;0.70;;;0.70;;
65825;SDS011;52586;-43.152;172.732;2022-09-13T06:34:53;0.43;;;0.43;;
65825;SDS011;52586;-43.152;172.732;2022-09-13T06:37:23;0.65;;;0.55;;
65825;SDS011;52586;-43.152;172.732;2022-09-13T06:39:56;0.60;;;0.60;;
65825;SDS011;52586;-43.152;172.732;2022-09-13T06:42:27;0.75;;;0.73;;
65825;SDS011;52586;-43.152;172.732;2022-09-13T06:44:57;0.50;;;0.50;;
65825;SDS011;52586;-43.152;172.732;2022-09-13T06:47:28;0.90;;;0.77;;
65825;SDS011;52586;-43.152;172.732;2022-09-13T06:49:59;0.85;;;0.77;;
65825;SDS011;52586;-43.152;172.732;2022-09-13T06:52:29;1.30;;;0.90;;
65825;SDS011;52586;-43.152;172.732;2022-09-13T06:55:02;0.73;;;0.50;;
65825;SDS011;52586;-43.152;172.732;2022-09-13T06:57:33;0.85;;;0.63;;
65825;SDS011;52586;-43.152;172.732;2022-09-13T07:00:04;0.70;;;0.70;;
65825;SDS011;52586;-43.152;172.732;2022-09-13T07:02:35;0.95;;;0.60;;
65825;SDS011;52586;-43.152;172.732;2022-09-13T07:05:06;0.80;;;0.70;;
65825;SDS011;52586;-43.152;172.732;2022-09-13T07:07:37;0.90;;;0.70;;
65825;SDS011;52586;-43.152;172.732;2022-09-13T07:10:10;0.77;;;0.70;;
65825;SDS011;52586;-43.152;172.732;2022-09-13T07:12:40;1.20;;;0.80;;
65825;SDS011;52586;-43.152;172.732;2022-09-13T07:15:11;1.40;;;0.95;;
65825;SDS011;52586;-43.152;172.732;2022-09-13T07:17:42;1.00;;;0.90;;
65825;SDS011;52586;-43.152;172.732;2022-09-13T07:20:13;1.00;;;0.70;;
65825;SDS011;52586;-43.152;172.732;2022-09-13T07:22:43;1.00;;;0.70;;
65825;SDS011;52586;-43.152;172.732;2022-09-13T07:25:16;1.63;;;0.70;;
65825;SDS011;52586;-43.152;172.732;2022-09-13T07:27:46;0.93;;;0.73;;
65825;SDS011;52586;-43.152;172.732;2022-09-13T07:30:17;1.25;;;1.10;;
65825;SDS011;52586;-43.152;172.732;2022-09-13T07:32:48;1.80;;;0.80;;
65825;SDS011;52586;-43.152;172.732;2022-09-13T07:35:18;1.13;;;0.93;;
65825;SDS011;52586;-43.152;172.732;2022-09-13T07:37:49;2.15;;;0.77;;
65825;SDS011;52586;-43.152;172.732;2022-09-13T07:40:22;0.85;;;0.82;;
65825;SDS011;52586;-43.152;172.732;2022-09-13T07:42:52;2.38;;;0.82;;
65825;SDS011;52586;-43.152;172.732;2022-09-13T07:45:23;1.33;;;0.77;;
65825;SDS011;52586;-43.152;172.732;2022-09-13T07:47:54;1.55;;;0.80;;
65825;SDS011;52586;-43.152;172.732;2022-09-13T07:50:25;0.73;;;0.73;;
65825;SDS011;52586;-43.152;172.732;2022-09-13T07:52:56;1.05;;;0.77;;
65825;SDS011;52586;-43.152;172.732;2022-09-13T07:55:28;0.88;;;0.88;;
65825;SDS011;52586;-43.152;172.732;2022-09-13T07:58:00;0.68;;;0.68;;
65825;SDS011;52586;-43.152;172.732;2022-09-13T08:00:30;0.98;;;0.70;;
65825;SDS011;52586;-43.152;172.732;2022-09-13T08:03:01;0.55;;;0.55;;
65825;SDS011;52586;-43.152;172.732;2022-09-13T08:05:32;0.90;;;0.65;;
65825;SDS011;52586;-43.152;172.732;2022-09-13T08:08:07;1.65;;;0.82;;
65825;SDS011;52586;-43.152;172.732;2022-09-13T08:10:40;0.95;;;0.75;;
65825;SDS011;52586;-43.152;172.732;2022-09-13T08:13:11;1.13;;;0.70;;
65825;SDS011;52586;-43.152;172.732;2022-09-13T08:15:43;2.78;;;0.90;;
65825;SDS011;52586;-43.152;172.732;2022-09-13T08:18:15;1.02;;;0.73;;
65825;SDS011;52586;-43.152;172.732;2022-09-13T08:20:46;0.80;;;0.70;;
65825;SDS011;52586;-43.152;172.732;2022-09-13T08:23:16;0.70;;;0.70;;
65825;SDS011;52586;-43.152;172.732;2022-09-13T08:25:49;0.80;;;0.63;;
65825;SDS011;52586;-43.152;172.732;2022-09-13T08:28:20;0.65;;;0.65;;
65825;SDS011;52586;-43.152;172.732;2022-09-13T08:30:51;0.70;;;0.70;;
65825;SDS011;52586;-43.152;172.732;2022-09-13T08:33:22;1.90;;;0.70;;
65825;SDS011;52586;-43.152;172.732;2022-09-13T08:35:52;0.93;;;0.70;;
65825;SDS011;52586;-43.152;172.732;2022-09-13T08:38:23;1.13;;;0.80;;
65825;SDS011;52586;-43.152;172.732;2022-09-13T08:40:57;0.70;;;0.70;;
65825;SDS011;52586;-43.152;172.732;2022-09-13T08:43:33;0.70;;;0.65;;
65825;SDS011;52586;-43.152;172.732;2022-09-13T08:46:22;0.90;;;0.70;;
65825;SDS011;52586;-43.152;172.732;2022-09-13T08:48:56;1.15;;;0.70;;
65825;SDS011;52586;-43.152;172.732;2022-09-13T08:51:30;0.70;;;0.60;;
65825;SDS011;52586;-43.152;172.732;2022-09-13T08:54:03;1.08;;;0.85;;
65825;SDS011;52586;-43.152;172.732;2022-09-13T08:56:40;1.00;;;0.90;;
65825;SDS011;52586;-43.152;172.732;2022-09-13T09:02:23;1.48;;;0.90;;
65825;SDS011;52586;-43.152;172.732;2022-09-13T09:05:09;1.13;;;0.98;;
65825;SDS011;52586;-43.152;172.732;2022-09-13T09:07:45;1.30;;;1.05;;
65825;SDS011;52586;-43.152;172.732;2022-09-13T09:10:18;1.00;;;0.90;;
65825;SDS011;52586;-43.152;172.732;2022-09-13T09:12:54;1.40;;;1.10;;
65825;SDS011;52586;-43.152;172.732;2022-09-13T09:15:27;1.60;;;1.00;;
65825;SDS011;52586;-43.152;172.732;2022-09-13T09:18:02;1.15;;;1.02;;
65825;SDS011;52586;-43.152;172.732;2022-09-13T09:20:38;2.65;;;1.23;;
65825;SDS011;52586;-43.152;172.732;2022-09-13T09:23:12;1.15;;;1.00;;
65825;SDS011;52586;-43.152;172.732;2022-09-13T09:25:46;2.35;;;1.23;;
65825;SDS011;52586;-43.152;172.732;2022-09-13T09:28:21;1.42;;;1.10;;
65825;SDS011;52586;-43.152;172.732;2022-09-13T09:30:57;1.83;;;1.00;;
65825;SDS011;52586;-43.152;172.732;2022-09-13T09:36:25;1.88;;;1.40;;
65825;SDS011;52586;-43.152;172.732;2022-09-13T09:39:06;1.77;;;1.02;;
65825;SDS011;52586;-43.152;172.732;2022-09-13T09:41:41;1.20;;;0.95;;
65825;SDS011;52586;-43.152;172.732;2022-09-13T09:44:16;1.35;;;1.20;;
65825;SDS011;52586;-43.152;172.732;2022-09-13T09:46:49;1.73;;;1.30;;
65825;SDS011;52586;-43.152;172.732;2022-09-13T09:49:25;1.83;;;1.30;;
65825;SDS011;52586;-43.152;172.732;2022-09-13T09:52:16;1.40;;;1.30;;
65825;SDS011;52586;-43.152;172.732;2022-09-13T09:54:53;2.15;;;1.38;;
65825;SDS011;52586;-43.152;172.732;2022-09-13T10:00:29;1.73;;;1.30;;
65825;SDS011;52586;-43.152;172.732;2022-09-13T10:03:01;2.78;;;1.73;;
65825;SDS011;52586;-43.152;172.732;2022-09-13T10:05:34;2.08;;;1.35;;
65825;SDS011;52586;-43.152;172.732;2022-09-13T10:08:05;1.90;;;1.35;;
65825;SDS011;52586;-43.152;172.732;2022-09-13T10:10:37;3.75;;;2.17;;
65825;SDS011;52586;-43.152;172.732;2022-09-13T10:13:12;3.45;;;1.95;;
65825;SDS011;52586;-43.152;172.732;2022-09-13T10:15:55;4.80;;;1.90;;
65825;SDS011;52586;-43.152;172.732;2022-09-13T10:18:28;3.50;;;2.05;;
65825;SDS011;52586;-43.152;172.732;2022-09-13T10:21:00;5.75;;;2.65;;
65825;SDS011;52586;-43.152;172.732;2022-09-13T10:23:32;3.83;;;2.08;;
65825;SDS011;52586;-43.152;172.732;2022-09-13T10:26:06;3.88;;;2.05;;
65825;SDS011;52586;-43.152;172.732;2022-09-13T10:28:43;4.10;;;2.13;;
65825;SDS011;52586;-43.152;172.732;2022-09-13T10:31:17;3.42;;;2.17;;
65825;SDS011;52586;-43.152;172.732;2022-09-13T10:33:53;3.78;;;2.00;;
65825;SDS011;52586;-43.152;172.732;2022-09-13T10:36:28;4.22;;;2.50;;
65825;SDS011;52586;-43.152;172.732;2022-09-13T10:39:00;5.65;;;2.35;;
65825;SDS011;52586;-43.152;172.732;2022-09-13T10:41:33;5.32;;;2.33;;
65825;SDS011;52586;-43.152;172.732;2022-09-13T10:44:21;5.20;;;2.30;;
65825;SDS011;52586;-43.152;172.732;2022-09-13T10:47:00;6.68;;;2.85;;
65825;SDS011;52586;-43.152;172.732;2022-09-13T10:49:43;4.53;;;2.40;;
65825;SDS011;52586;-43.152;172.732;2022-09-13T10:52:26;5.00;;;2.17;;
65825;SDS011;52586;-43.152;172.732;2022-09-13T10:55:14;4.60;;;2.47;;
65825;SDS011;52586;-43.152;172.732;2022-09-13T10:57:54;6.15;;;2.88;;
65825;SDS011;52586;-43.152;172.732;2022-09-13T11:00:43;7.88;;;3.08;;
65825;SDS011;52586;-43.152;172.732;2022-09-13T11:03:28;5.82;;;2.70;;
65825;SDS011;52586;-43.152;172.732;2022-09-13T11:06:15;7.43;;;2.90;;
65825;SDS011;52586;-43.152;172.732;2022-09-13T11:08:53;4.65;;;2.72;;
65825;SDS011;52586;-43.152;172.732;2022-09-13T11:11:30;4.35;;;2.42;;
65825;SDS011;52586;-43.152;172.732;2022-09-13T11:14:14;5.70;;;2.88;;
65825;SDS011;52586;-43.152;172.732;2022-09-13T11:17:03;5.95;;;2.67;;
65825;SDS011;52586;-43.152;172.732;2022-09-13T11:19:51;7.38;;;2.70;;
65825;SDS011;52586;-43.152;172.732;2022-09-13T11:22:45;5.80;;;2.88;;
65825;SDS011;52586;-43.152;172.732;2022-09-13T11:25:29;5.68;;;3.10;;
65825;SDS011;52586;-43.152;172.732;2022-09-13T11:28:13;7.18;;;3.33;;
65825;SDS011;52586;-43.152;172.732;2022-09-13T11:30:51;5.65;;;2.95;;
65825;SDS011;52586;-43.152;172.732;2022-09-13T11:33:36;8.55;;;3.35;;
65825;SDS011;52586;-43.152;172.732;2022-09-13T11:36:25;8.48;;;3.10;;
65825;SDS011;52586;-43.152;172.732;2022-09-13T11:39:07;5.90;;;2.60;;
65825;SDS011;52586;-43.152;172.732;2022-09-13T11:41:47;6.60;;;3.20;;
65825;SDS011;52586;-43.152;172.732;2022-09-13T11:44:32;6.43;;;2.67;;
65825;SDS011;52586;-43.152;172.732;2022-09-13T11:47:21;5.70;;;3.13;;
65825;SDS011;52586;-43.152;172.732;2022-09-13T11:50:03;7.13;;;3.08;;
65825;SDS011;52586;-43.152;172.732;2022-09-13T11:52:55;5.68;;;2.85;;
65825;SDS011;52586;-43.152;172.732;2022-09-13T11:55:38;7.07;;;3.10;;
65825;SDS011;52586;-43.152;172.732;2022-09-13T11:58:14;7.03;;;2.97;;
65825;SDS011;52586;-43.152;172.732;2022-09-13T12:00:49;6.43;;;3.05;;
65825;SDS011;52586;-43.152;172.732;2022-09-13T12:03:24;7.22;;;3.17;;
65825;SDS011;52586;-43.152;172.732;2022-09-13T12:06:00;5.63;;;2.60;;
65825;SDS011;52586;-43.152;172.732;2022-09-13T12:08:39;5.97;;;2.35;;
65825;SDS011;52586;-43.152;172.732;2022-09-13T12:11:15;6.22;;;3.25;;
65825;SDS011;52586;-43.152;172.732;2022-09-13T12:13:49;5.43;;;2.95;;
65825;SDS011;52586;-43.152;172.732;2022-09-13T12:16:24;4.63;;;2.75;;
65825;SDS011;52586;-43.152;172.732;2022-09-13T12:18:59;6.15;;;3.22;;
65825;SDS011;52586;-43.152;172.732;2022-09-13T12:21:35;5.40;;;2.97;;
65825;SDS011;52586;-43.152;172.732;2022-09-13T12:24:10;5.28;;;2.60;;
65825;SDS011;52586;-43.152;172.732;2022-09-13T12:26:45;4.72;;;2.78;;
65825;SDS011;52586;-43.152;172.732;2022-09-13T12:29:23;5.75;;;2.63;;
65825;SDS011;52586;-43.152;172.732;2022-09-13T12:32:00;5.65;;;2.45;;
65825;SDS011;52586;-43.152;172.732;2022-09-13T12:34:33;6.90;;;2.55;;
65825;SDS011;52586;-43.152;172.732;2022-09-13T12:37:16;4.55;;;2.63;;
65825;SDS011;52586;-43.152;172.732;2022-09-13T12:42:58;4.70;;;2.60;;
65825;SDS011;52586;-43.152;172.732;2022-09-13T12:45:47;6.55;;;2.83;;
65825;SDS011;52586;-43.152;172.732;2022-09-13T12:51:40;7.20;;;3.03;;
65825;SDS011;52586;-43.152;172.732;2022-09-13T12:57:30;7.10;;;2.92;;
65825;SDS011;52586;-43.152;172.732;2022-09-13T13:03:00;7.90;;;3.25;;
65825;SDS011;52586;-43.152;172.732;2022-09-13T13:05:37;4.57;;;2.67;;
65825;SDS011;52586;-43.152;172.732;2022-09-13T13:08:19;5.07;;;2.58;;
65825;SDS011;52586;-43.152;172.732;2022-09-13T13:11:02;4.38;;;2.35;;
65825;SDS011;52586;-43.152;172.732;2022-09-13T13:13:36;6.25;;;2.80;;
65825;SDS011;52586;-43.152;172.732;2022-09-13T13:18:55;5.72;;;2.80;;
65825;SDS011;52586;-43.152;172.732;2022-09-13T13:21:31;5.28;;;2.50;;
65825;SDS011;52586;-43.152;172.732;2022-09-13T13:30:38;5.05;;;2.80;;
65825;SDS011;52586;-43.152;172.732;2022-09-13T13:33:19;6.47;;;2.78;;
65825;SDS011;52586;-43.152;172.732;2022-09-13T13:35:57;6.35;;;2.65;;
65825;SDS011;52586;-43.152;172.732;2022-09-13T13:38:51;3.95;;;2.17;;
65825;SDS011;52586;-43.152;172.732;2022-09-13T13:41:38;4.22;;;2.50;;
65825;SDS011;52586;-43.152;172.732;2022-09-13T13:53:49;6.18;;;2.45;;
65825;SDS011;52586;-43.152;172.732;2022-09-13T13:59:21;4.38;;;2.47;;
65825;SDS011;52586;-43.152;172.732;2022-09-13T14:01:54;5.20;;;2.50;;
65825;SDS011;52586;-43.152;172.732;2022-09-13T14:10:39;3.88;;;2.15;;
65825;SDS011;52586;-43.152;172.732;2022-09-13T14:13:21;5.72;;;2.63;;
65825;SDS011;52586;-43.152;172.732;2022-09-13T14:16:06;5.03;;;2.67;;
65825;SDS011;52586;-43.152;172.732;2022-09-13T14:18:48;5.38;;;2.45;;
65825;SDS011;52586;-43.152;172.732;2022-09-13T14:21:35;7.00;;;2.47;;
65825;SDS011;52586;-43.152;172.732;2022-09-13T14:24:15;5.93;;;2.20;;
65825;SDS011;52586;-43.152;172.732;2022-09-13T14:26:51;4.55;;;2.60;;
65825;SDS011;52586;-43.152;172.732;2022-09-13T14:29:27;5.60;;;2.88;;
65825;SDS011;52586;-43.152;172.732;2022-09-13T14:32:01;4.57;;;2.33;;
65825;SDS011;52586;-43.152;172.732;2022-09-13T14:34:36;6.45;;;2.65;;
65825;SDS011;52586;-43.152;172.732;2022-09-13T14:37:15;4.45;;;2.05;;
65825;SDS011;52586;-43.152;172.732;2022-09-13T14:39:54;5.18;;;2.17;;
65825;SDS011;52586;-43.152;172.732;2022-09-13T14:42:36;4.55;;;2.30;;
65825;SDS011;52586;-43.152;172.732;2022-09-13T14:45:11;4.53;;;2.63;;
65825;SDS011;52586;-43.152;172.732;2022-09-13T14:47:45;4.57;;;2.33;;
65825;SDS011;52586;-43.152;172.732;2022-09-13T14:50:21;3.78;;;2.20;;
65825;SDS011;52586;-43.152;172.732;2022-09-13T14:52:55;6.40;;;2.42;;
65825;SDS011;52586;-43.152;172.732;2022-09-13T14:55:29;4.90;;;2.42;;
65825;SDS011;52586;-43.152;172.732;2022-09-13T14:58:04;3.83;;;2.55;;
65825;SDS011;52586;-43.152;172.732;2022-09-13T15:00:42;5.03;;;2.30;;
65825;SDS011;52586;-43.152;172.732;2022-09-13T15:03:17;4.00;;;2.00;;
65825;SDS011;52586;-43.152;172.732;2022-09-13T15:05:52;3.70;;;2.08;;
65825;SDS011;52586;-43.152;172.732;2022-09-13T15:08:38;5.43;;;2.35;;
65825;SDS011;52586;-43.152;172.732;2022-09-13T15:11:14;3.65;;;2.17;;
65825;SDS011;52586;-43.152;172.732;2022-09-13T15:17:05;4.35;;;2.25;;
65825;SDS011;52586;-43.152;172.732;2022-09-13T15:19:37;3.28;;;1.90;;
65825;SDS011;52586;-43.152;172.732;2022-09-13T15:22:17;4.38;;;2.00;;
65825;SDS011;52586;-43.152;172.732;2022-09-13T15:24:54;4.38;;;2.28;;
65825;SDS011;52586;-43.152;172.732;2022-09-13T15:27:26;4.18;;;1.95;;
65825;SDS011;52586;-43.152;172.732;2022-09-13T15:30:00;3.33;;;1.95;;
65825;SDS011;52586;-43.152;172.732;2022-09-13T15:32:33;3.65;;;2.03;;
65825;SDS011;52586;-43.152;172.732;2022-09-13T15:35:17;4.05;;;2.22;;
65825;SDS011;52586;-43.152;172.732;2022-09-13T15:37:57;3.38;;;2.00;;
65825;SDS011;52586;-43.152;172.732;2022-09-13T15:40:29;3.40;;;2.05;;
65825;SDS011;52586;-43.152;172.732;2022-09-13T15:43:08;4.07;;;2.03;;
65825;SDS011;52586;-43.152;172.732;2022-09-13T15:45:41;5.40;;;2.10;;
65825;SDS011;52586;-43.152;172.732;2022-09-13T15:48:15;3.22;;;2.13;;
65825;SDS011;52586;-43.152;172.732;2022-09-13T15:51:02;3.00;;;2.20;;
65825;SDS011;52586;-43.152;172.732;2022-09-13T15:53:35;3.70;;;1.95;;
65825;SDS011;52586;-43.152;172.732;2022-09-13T15:56:07;4.32;;;1.85;;
65825;SDS011;52586;-43.152;172.732;2022-09-13T15:58:44;4.75;;;1.70;;